Time;durP1;ratioP1;P1;durP2;ratioP2;P2;SDS_P1;SDS_P2;PMS_P1;PMS_P2;Temp;Humidity;BMP_temperature;BMP_pressure;BME280_temperature;BME280_humidity;BME280_pressure;Samples;Min_cycle;Max_cycle;Signal;HPM_P1;HPM_P2
2021/08/13 00:01:42;;;;;;;1.17;1.08;;;18.80;82.20;;;20.55;72.63;101878.16;3189117;38;131557;-73
2021/08/13 00:04:48;;;;;;;1.40;1.30;;;18.70;82.20;;;20.51;72.49;101873.75;3190350;30;131656;-73
2021/08/13 00:07:54;;;;;;;2.67;1.55;;;18.70;82.20;;;20.91;71.15;101878.97;3189775;38;131380;-73
2021/08/13 00:11:00;;;;;;;1.02;0.88;;;18.60;82.20;;;20.84;71.20;101881.47;3191410;38;130816;-73
2021/08/13 00:14:09;;;;;;;2.95;2.17;;;18.60;82.20;;;20.81;71.23;101881.31;3191548;38;130125;-73
2021/08/13 00:17:17;;;;;;;3.17;1.10;;;18.60;82.30;;;20.94;70.35;101874.75;3190697;38;129795;-73
2021/08/13 00:20:23;;;;;;;1.42;1.33;;;18.50;82.30;;;20.89;70.57;101875.78;3190480;30;129801;-73
2021/08/13 00:23:30;;;;;;;2.65;1.63;;;18.50;82.30;;;20.71;71.01;101881.78;3191558;30;130720;-73
2021/08/13 00:26:38;;;;;;;0.98;0.98;;;18.40;82.30;;;20.62;71.13;101876.44;3189793;38;130093;-73
2021/08/13 00:29:45;;;;;;;1.67;1.23;;;18.40;82.30;;;20.49;71.52;101876.78;3190399;38;132103;-73
2021/08/13 00:32:52;;;;;;;3.63;1.38;;;18.40;82.30;;;20.30;72.21;101886.66;3188677;38;130965;-73
2021/08/13 00:35:59;;;;;;;3.75;1.80;;;18.30;82.90;;;20.69;70.72;101887.56;3188806;38;130640;-73
2021/08/13 00:39:10;;;;;;;1.77;1.58;;;18.30;82.30;;;20.74;70.27;101887.34;3193518;38;130233;-73
2021/08/13 00:42:16;;;;;;;0.88;0.68;;;18.30;82.30;;;20.73;70.19;101883.06;3190998;30;130827;-73
2021/08/13 00:45:24;;;;;;;2.80;1.77;;;18.20;82.30;;;20.70;70.08;101891.88;3193880;38;129464;-73
2021/08/13 00:48:41;;;;;;;1.98;1.73;;;18.20;82.40;;;20.15;71.90;101892.75;3190658;38;129740;-73
2021/08/13 00:51:59;;;;;;;10.05;3.17;;;18.20;82.40;;;20.09;72.31;101896.81;3190400;38;131447;-73
2021/08/13 00:55:11;;;;;;;4.28;1.85;;;18.10;82.30;;;20.05;72.14;101893.97;3188429;31;130863;-73
2021/08/13 00:58:35;;;;;;;2.53;0.70;;;18.10;82.30;;;20.00;72.33;101893.38;3191548;30;130681;-73
2021/08/13 01:01:52;;;;;;;2.88;1.40;;;18.10;82.30;;;19.93;72.40;101893.13;3190793;38;130881;-73
2021/08/13 01:05:01;;;;;;;2.72;1.27;;;18.00;82.30;;;20.17;71.30;101895.94;3191310;38;129787;-73
2021/08/13 01:08:11;;;;;;;1.48;1.38;;;18.00;82.90;;;20.25;70.95;101898.53;3191730;30;130101;-73
2021/08/13 01:11:29;;;;;;;3.10;1.33;;;18.00;82.40;;;20.02;71.46;101902.81;3192325;38;130918;-73
2021/08/13 01:14:53;;;;;;;2.28;1.08;;;17.90;82.30;;;19.87;72.04;101894.47;3189981;38;131062;-73
2021/08/13 01:18:08;;;;;;;1.17;1.10;;;17.90;82.40;;;19.81;72.20;101903.94;3190214;38;130915;-73
2021/08/13 01:21:37;;;;;;;2.58;1.77;;;17.80;82.30;;;19.99;71.04;101899.94;3193432;38;131195;-73
2021/08/13 01:24:49;;;;;;;5.78;2.42;;;17.80;82.40;;;19.74;71.94;101893.63;3190729;38;130734;-73
2021/08/13 01:27:59;;;;;;;1.40;1.30;;;17.80;82.40;;;19.67;72.14;101887.94;3190727;38;132432;-73
2021/08/13 01:31:19;;;;;;;0.70;0.70;;;17.80;82.50;;;19.64;72.21;101888.59;3190962;30;130453;-73
2021/08/13 01:34:28;;;;;;;2.70;1.60;;;17.70;82.40;;;19.59;72.25;101886.09;3190542;38;130759;-73
2021/08/13 01:37:38;;;;;;;2.35;1.42;;;17.70;82.50;;;19.81;71.27;101888.44;3189154;38;130951;-73
2021/08/13 01:40:50;;;;;;;1.70;1.60;;;17.60;82.40;;;19.79;70.98;101879.81;3190104;38;130761;-73
2021/08/13 01:44:01;;;;;;;0.77;0.77;;;17.50;82.40;;;19.78;71.00;101891.03;3190412;38;130369;-73
2021/08/13 01:47:11;;;;;;;1.48;1.38;;;17.50;82.50;;;19.62;71.45;101896.28;3191635;38;131362;-73
2021/08/13 01:50:21;;;;;;;0.55;0.55;;;17.40;82.50;;;19.45;71.77;101895.66;3189824;38;130834;-73
2021/08/13 01:53:33;;;;;;;5.57;1.92;;;17.40;82.50;;;19.61;71.35;101894.69;3190314;38;133301;-73
2021/08/13 01:56:41;;;;;;;2.95;1.80;;;17.30;82.60;;;19.45;71.76;101898.38;3188751;38;130940;-74
2021/08/13 01:59:49;;;;;;;3.70;1.75;;;17.30;82.70;;;19.32;72.13;101892.06;3191452;30;130801;-73
2021/08/13 02:02:58;;;;;;;5.40;1.83;;;17.30;82.70;;;19.17;72.25;101889.97;3190396;38;132010;-73
2021/08/13 02:06:10;;;;;;;0.50;0.50;;;17.20;82.60;;;19.09;72.33;101895.41;3190356;38;131427;-73
2021/08/13 02:09:18;;;;;;;3.17;0.93;;;17.10;82.70;;;19.03;72.42;101896.75;3189007;38;130927;-73
2021/08/13 02:12:25;;;;;;;1.48;1.38;;;17.10;82.80;;;19.07;72.45;101903.91;3192831;38;130537;-73
2021/08/13 02:15:40;;;;;;;1.45;1.25;;;17.00;82.90;;;19.02;72.19;101908.72;3189948;38;130894;-73
2021/08/13 02:18:57;;;;;;;1.63;1.52;;;17.00;82.90;;;18.96;72.19;101904.63;3189869;30;131556;-74
2021/08/13 02:22:06;;;;;;;2.42;1.40;;;16.90;82.80;;;18.94;72.30;101907.66;3189475;38;130736;-74
2021/08/13 02:25:14;;;;;;;1.77;1.02;;;16.90;82.90;;;18.96;72.22;101907.34;3189020;38;130539;-73
2021/08/13 02:28:20;;;;;;;17.48;1.58;;;16.90;83.00;;;18.97;71.96;101907.00;3191094;30;131096;-73
2021/08/13 02:31:26;;;;;;;4.18;2.20;;;16.90;83.00;;;19.01;71.84;101913.34;3189026;38;130574;-73
2021/08/13 02:34:34;;;;;;;1.60;1.50;;;16.90;83.00;;;19.05;71.81;101908.06;3188144;38;130758;-73
2021/08/13 02:37:51;;;;;;;0.50;0.50;;;16.90;82.40;;;19.03;71.79;101905.66;3189804;30;130141;-73
2021/08/13 02:41:05;;;;;;;2.05;1.02;;;16.90;82.90;;;19.00;71.90;101906.34;3190008;30;131242;-73
2021/08/13 02:44:15;;;;;;;4.85;2.00;;;16.90;82.90;;;19.00;71.99;101900.91;3189015;38;130051;-73
2021/08/13 02:47:28;;;;;;;5.07;1.17;;;16.90;82.90;;;19.01;71.67;101899.00;3190885;30;130712;-73
2021/08/13 02:50:36;;;;;;;2.72;2.10;;;16.90;82.90;;;19.45;70.02;101895.66;3188321;38;129472;-73
2021/08/13 02:53:49;;;;;;;0.50;0.50;;;16.90;82.80;;;19.52;69.70;101899.44;3190106;38;129849;-73
2021/08/13 02:56:58;;;;;;;1.03;1.03;;;16.90;82.80;;;19.51;69.71;101905.19;3190279;30;130985;-73
2021/08/13 03:00:11;;;;;;;2.40;2.25;;;16.90;82.70;;;19.50;69.91;101890.00;3189516;38;131252;-73
2021/08/13 03:03:21;;;;;;;0.57;0.40;;;16.90;82.70;;;19.51;69.66;101889.69;3188972;30;129888;-73
2021/08/13 03:06:39;;;;;;;0.32;0.25;;;16.90;82.80;;;19.50;69.49;101898.16;3190194;30;131195;-73
2021/08/13 03:09:49;;;;;;;1.05;1.05;;;16.90;83.40;;;19.50;69.48;101903.59;3190269;38;130822;-73
2021/08/13 03:12:56;;;;;;;1.73;0.88;;;16.80;82.60;;;19.48;69.78;101894.97;3188869;38;130194;-73
2021/08/13 03:16:05;;;;;;;0.93;0.88;;;16.80;82.70;;;19.47;69.54;101898.81;3188965;38;131456;-73
2021/08/13 03:19:18;;;;;;;2.88;1.10;;;16.80;82.60;;;19.45;69.79;101901.09;3190082;30;131551;-73
2021/08/13 03:22:24;;;;;;;1.10;1.02;;;16.80;82.70;;;19.44;69.75;101897.59;3189216;38;130715;-73
2021/08/13 03:25:33;;;;;;;0.70;0.70;;;16.80;82.70;;;19.46;69.47;101905.38;3190514;30;129763;-73
2021/08/13 03:28:42;;;;;;;0.40;0.40;;;16.80;82.70;;;19.47;69.68;101893.38;3189451;38;130086;-73
2021/08/13 03:31:49;;;;;;;3.28;1.67;;;16.80;82.70;;;19.45;69.66;101880.16;3190217;38;130820;-73
2021/08/13 03:34:56;;;;;;;0.65;0.63;;;16.80;82.60;;;19.39;69.55;101886.09;3189841;38;130724;-73
2021/08/13 03:38:02;;;;;;;0.13;0.13;;;16.70;82.60;;;19.34;69.77;101881.66;3190515;38;130819;-73
2021/08/13 03:41:10;;;;;;;0.50;0.50;;;16.70;82.60;;;19.32;69.75;101885.84;3190062;38;130488;-73
2021/08/13 03:44:16;;;;;;;2.28;0.65;;;16.70;82.60;;;19.28;69.64;101883.00;3190352;38;131217;-73
2021/08/13 03:47:23;;;;;;;1.58;1.27;;;16.70;82.60;;;19.25;70.03;101878.22;3188477;38;130847;-73
2021/08/13 03:50:29;;;;;;;0.77;0.77;;;16.70;82.70;;;19.22;69.97;101878.88;3189011;38;131287;-73
2021/08/13 03:53:37;;;;;;;1.48;1.38;;;16.60;82.60;;;19.19;69.93;101865.16;3190334;38;129848;-73
2021/08/13 03:56:45;;;;;;;0.95;0.93;;;16.60;82.60;;;19.16;69.99;101879.41;3190060;38;130712;-73
2021/08/13 03:59:52;;;;;;;0.50;0.50;;;16.60;82.90;;;19.12;69.97;101871.09;3190293;38;129835;-73
2021/08/13 04:02:58;;;;;;;0.30;0.22;;;16.50;82.60;;;19.10;69.94;101884.22;3190494;30;130760;-73
2021/08/13 04:06:07;;;;;;;0.47;0.47;;;16.50;82.70;;;19.09;70.05;101881.81;3191306;38;130120;-73
2021/08/13 04:09:16;;;;;;;1.02;1.02;;;16.50;82.70;;;19.06;69.91;101877.06;3189095;38;129957;-73
2021/08/13 04:12:23;;;;;;;5.93;1.52;;;16.50;82.70;;;19.07;69.99;101890.31;3194632;38;130771;-73
2021/08/13 04:15:47;;;;;;;1.45;1.35;;;16.50;82.70;;;19.03;70.08;101896.75;3192906;38;131429;-73
2021/08/13 04:18:52;;;;;;;0.40;0.40;;;16.40;82.60;;;19.02;69.94;101898.66;3189905;38;130181;-73
2021/08/13 04:21:58;;;;;;;2.40;1.73;;;16.50;82.70;;;19.10;69.78;101891.56;3190266;38;130770;-73
2021/08/13 04:25:14;;;;;;;1.00;1.00;;;16.50;82.70;;;19.13;69.67;101888.19;3189185;38;130760;-73
2021/08/13 04:28:22;;;;;;;2.70;1.48;;;16.50;82.70;;;19.09;69.75;101879.91;3190178;38;129707;-73
2021/08/13 04:31:28;;;;;;;0.32;0.32;;;16.50;82.60;;;19.18;69.52;101877.97;3191296;30;131038;-73
2021/08/13 04:34:36;;;;;;;1.55;0.95;;;16.60;82.60;;;19.23;69.37;101875.03;3189514;30;132032;-73
2021/08/13 04:37:42;;;;;;;0.63;0.63;;;16.60;82.50;;;19.25;69.48;101872.00;3190090;30;130878;-73
2021/08/13 04:40:48;;;;;;;0.60;0.60;;;16.60;82.50;;;19.22;69.62;101868.03;3188286;38;130790;-73
2021/08/13 04:43:57;;;;;;;1.92;1.83;;;16.60;82.40;;;19.29;69.27;101879.16;3189134;38;131345;-73
2021/08/13 04:47:07;;;;;;;3.85;1.15;;;16.60;82.30;;;19.50;69.13;101876.41;3190371;38;129904;-73
2021/08/13 04:50:13;;;;;;;2.05;1.25;;;16.70;82.40;;;19.73;68.60;101870.28;3188845;38;130994;-73
2021/08/13 04:53:20;;;;;;;4.40;1.42;;;16.90;82.20;;;19.95;68.04;101867.16;3189892;30;130299;-73
2021/08/13 04:56:26;;;;;;;3.42;1.85;;;17.00;82.00;;;19.96;68.15;101871.47;3190208;38;130652;-73
2021/08/13 04:59:34;;;;;;;1.25;0.93;;;17.10;81.80;;;20.04;67.95;101876.06;3189773;38;129933;-73
2021/08/13 05:02:44;;;;;;;2.05;1.55;;;17.20;81.70;;;20.19;67.88;101888.22;3190624;38;129975;-73
2021/08/13 05:05:51;;;;;;;2.10;1.25;;;17.30;81.50;;;20.35;67.58;101892.69;3189465;38;130805;-73
2021/08/13 05:08:57;;;;;;;1.27;1.17;;;17.50;81.40;;;20.45;67.43;101886.78;3187820;38;130741;-73
2021/08/13 05:12:06;;;;;;;2.65;1.92;;;17.60;81.20;;;20.53;67.45;101893.25;3190046;30;129933;-73
2021/08/13 05:15:15;;;;;;;1.98;1.50;;;17.70;81.10;;;20.60;67.43;101886.91;3188861;38;131368;-73
2021/08/13 05:18:25;;;;;;;3.87;2.13;;;17.80;81.00;;;20.85;66.82;101885.78;3190663;30;130736;-73
2021/08/13 05:21:32;;;;;;;2.28;2.13;;;17.90;80.90;;;21.08;66.41;101892.34;3189346;38;130759;-73
2021/08/13 05:24:39;;;;;;;3.13;2.13;;;18.10;80.70;;;21.47;65.82;101891.53;3188919;38;131149;-73
2021/08/13 05:27:46;;;;;;;1.40;1.30;;;18.30;80.40;;;21.91;64.95;101876.81;3190105;30;129864;-73
2021/08/13 05:30:54;;;;;;;1.67;1.50;;;18.60;80.00;;;22.39;64.12;101887.44;3188149;30;130796;-73
2021/08/13 05:34:01;;;;;;;0.55;0.55;;;19.00;79.50;;;22.80;63.63;101895.88;3188651;38;129739;-73
2021/08/13 05:37:08;;;;;;;1.10;1.10;;;19.30;79.00;;;22.77;64.20;101899.31;3190284;30;131402;-73
2021/08/13 05:40:18;;;;;;;0.30;0.30;;;19.50;78.80;;;23.39;63.10;101895.63;3189124;38;129753;-73
2021/08/13 05:43:24;;;;;;;1.48;0.80;;;20.10;78.80;;;25.72;57.65;101901.47;3189842;38;131290;-74
2021/08/13 05:46:32;;;;;;;1.52;1.15;;;21.50;76.50;;;25.44;59.74;101897.63;3189562;38;130595;-74
2021/08/13 05:49:38;;;;;;;0.80;0.80;;;21.90;75.70;;;25.24;61.52;101905.22;3188147;38;130732;-73
2021/08/13 05:52:45;;;;;;;0.55;0.55;;;22.00;76.30;;;27.56;56.20;101899.41;3189272;30;131493;-73
2021/08/13 05:55:52;;;;;;;0.98;0.70;;;22.90;75.30;;;29.67;52.68;101900.94;3189205;38;130715;-74
2021/08/13 05:59:00;;;;;;;4.15;1.33;;;24.20;74.40;;;31.95;49.38;101903.88;3191100;30;131208;-74
2021/08/13 06:02:18;;;;;;;5.57;2.72;;;25.80;72.90;;;32.29;51.13;101893.47;3190583;38;129921;-74
2021/08/13 06:05:26;;;;;;;3.73;1.90;;;26.80;72.30;;;31.58;53.90;101898.44;3189972;38;130886;-74
2021/08/13 06:08:35;;;;;;;7.82;1.48;;;27.10;72.50;;;32.30;53.74;101895.03;3189092;30;131612;-74
2021/08/13 06:11:42;;;;;;;5.30;1.10;;;27.60;73.20;;;33.87;51.17;101894.75;3188695;38;131540;-75
2021/08/13 06:14:48;;;;;;;5.70;1.55;;;28.50;72.30;;;34.52;50.69;101897.13;3189252;38;130939;-74
2021/08/13 06:17:56;;;;;;;1.05;1.00;;;29.30;72.10;;;34.61;52.12;101894.50;3190572;30;129989;-75
2021/08/13 06:21:05;;;;;;;4.30;1.33;;;29.70;72.20;;;36.15;49.48;101887.22;3192132;38;130828;-75
2021/08/13 06:24:13;;;;;;;11.30;2.40;;;30.70;71.40;;;35.17;53.36;101889.44;3191589;30;131267;-75
2021/08/13 06:27:22;;;;;;;3.40;2.25;;;30.70;71.60;;;33.81;57.00;101893.72;3190229;38;132169;-75
2021/08/13 06:30:28;;;;;;;2.95;1.90;;;30.30;72.90;;;34.14;56.17;101896.06;3190496;38;130713;-74
2021/08/13 06:33:36;;;;;;;1.50;1.40;;;30.10;73.40;;;34.73;54.88;101896.59;3190360;38;130575;-75
2021/08/13 06:36:43;;;;;;;8.70;3.72;;;30.40;73.30;;;33.34;59.23;101891.56;3190359;30;129825;-75
2021/08/13 06:39:50;;;;;;;2.33;1.73;;;30.10;73.90;;;32.16;61.88;101894.47;3189382;38;130012;-75
2021/08/13 06:42:56;;;;;;;1.75;1.65;;;29.50;74.90;;;31.85;61.86;101892.94;3191240;38;130401;-75
2021/08/13 06:46:08;;;;;;;3.67;2.17;;;29.00;75.50;;;31.99;60.85;101890.72;3190040;30;131297;-75
2021/08/13 06:49:17;;;;;;;1.67;1.55;;;28.80;75.60;;;31.43;61.77;101890.72;3191935;38;130087;-73
2021/08/13 06:52:24;;;;;;;3.17;1.83;;;28.50;75.40;;;30.84;62.99;101883.88;3187132;38;131654;-72
2021/08/13 06:55:30;;;;;;;3.33;1.98;;;28.00;75.90;;;31.41;60.73;101888.34;3188169;38;130834;-73
2021/08/13 06:58:37;;;;;;;3.17;2.28;;;27.90;76.30;;;31.63;60.36;101892.47;3189840;38;130657;-73
2021/08/13 07:01:43;;;;;;;4.00;2.28;;;27.90;76.20;;;31.22;60.97;101888.97;3194736;38;131734;-73
2021/08/13 07:04:52;;;;;;;3.25;2.75;;;27.80;76.00;;;31.36;61.03;101879.72;3190715;38;130966;-73
2021/08/13 07:07:59;;;;;;;3.20;1.90;;;27.80;75.90;;;31.05;60.93;101887.19;3192829;30;130707;-73
2021/08/13 07:11:08;;;;;;;3.42;1.88;;;27.70;76.00;;;30.47;62.72;101905.91;3191375;30;132793;-73
2021/08/13 07:14:14;;;;;;;1.42;1.33;;;27.50;76.10;;;30.09;63.23;101920.06;3191543;38;129721;-73
2021/08/13 07:17:23;;;;;;;4.97;2.80;;;27.20;76.80;;;29.86;63.75;101919.78;3191516;38;130941;-73
2021/08/13 07:20:31;;;;;;;1.95;1.63;;;26.90;77.00;;;30.29;61.95;101923.84;3188292;38;130033;-74
2021/08/13 07:23:52;;;;;;;7.38;2.40;;;26.90;77.10;;;30.62;61.03;101923.22;3187231;38;131022;-74
2021/08/13 07:26:59;;;;;;;6.38;3.08;;;26.90;76.70;;;30.52;60.57;101921.31;3188378;30;130696;-74
2021/08/13 07:30:13;;;;;;;6.63;2.40;;;27.00;76.40;;;30.72;60.50;101911.28;3187193;38;131652;-74
2021/08/13 07:33:19;;;;;;;3.85;2.55;;;26.90;76.20;;;30.99;59.91;101907.44;3194199;38;131033;-74
2021/08/13 07:36:27;;;;;;;2.08;1.85;;;27.00;76.20;;;31.37;58.60;101911.75;3190196;38;131390;-74
2021/08/13 07:39:34;;;;;;;7.03;2.53;;;27.20;76.10;;;31.47;58.54;101919.16;3195480;38;130133;-74
2021/08/13 07:42:41;;;;;;;3.33;2.30;;;27.40;75.90;;;31.65;58.16;101930.81;3187379;38;130819;-75
2021/08/13 07:45:49;;;;;;;2.17;1.50;;;27.50;75.60;;;31.13;59.85;101944.09;3186447;38;129758;-74
2021/08/13 07:48:56;;;;;;;5.75;2.75;;;27.50;75.70;;;30.61;60.93;101949.31;3190580;38;130292;-74
2021/08/13 07:52:05;;;;;;;2.50;1.75;;;27.40;75.70;;;30.02;62.12;101948.53;3185190;30;131453;-74
2021/08/13 07:55:13;;;;;;;8.85;3.50;;;27.10;75.90;;;29.51;63.06;101953.88;3189230;38;130890;-74
2021/08/13 07:58:19;;;;;;;2.45;1.75;;;26.70;76.20;;;29.20;64.08;101945.69;3189775;30;130052;-74
2021/08/13 08:01:25;;;;;;;9.43;2.08;;;26.40;76.70;;;29.36;62.92;101943.25;3186606;38;129891;-74
2021/08/13 08:04:32;;;;;;;1.85;1.23;;;26.30;76.70;;;29.88;61.69;101933.97;3188612;38;131085;-74
2021/08/13 08:07:39;;;;;;;2.33;1.38;;;26.30;76.80;;;31.74;56.72;101939.44;3187253;30;129965;-75
2021/08/13 08:10:46;;;;;;;1.13;0.88;;;26.70;76.40;;;32.18;56.10;101942.78;3187280;38;132385;-74
2021/08/13 08:13:52;;;;;;;0.98;0.93;;;27.20;75.70;;;33.60;53.43;101941.41;3188723;30;131304;-74
2021/08/13 08:16:58;;;;;;;2.00;1.17;;;27.70;75.40;;;34.13;53.00;101946.59;3188959;38;130084;-74
2021/08/13 08:20:06;;;;;;;1.17;0.65;;;28.30;74.80;;;35.01;51.22;101943.19;3188777;38;130970;-74
2021/08/13 08:23:13;;;;;;;2.72;1.67;;;28.90;74.50;;;35.63;51.31;101939.88;3189211;38;129708;-74
2021/08/13 08:26:19;;;;;;;3.95;2.35;;;29.40;74.10;;;35.75;51.94;101949.47;3188193;38;129934;-75
2021/08/13 08:29:26;;;;;;;8.55;1.42;;;30.00;74.00;;;36.06;51.26;101979.22;3189608;38;132029;-73
2021/08/13 08:32:32;;;;;;;4.30;1.48;;;30.40;73.60;;;35.28;53.86;101979.91;3189808;38;131540;-73
2021/08/13 08:35:38;;;;;;;5.28;1.92;;;30.60;73.50;;;34.23;57.11;101965.06;3187649;38;130110;-73
2021/08/13 08:38:46;;;;;;;4.75;2.60;;;30.40;73.60;;;33.98;56.92;101950.91;3187878;30;130821;-73
2021/08/13 08:41:51;;;;;;;1.85;1.27;;;30.10;74.00;;;34.49;55.49;101966.84;3186906;38;130486;-73
2021/08/13 08:44:57;;;;;;;2.60;1.33;;;30.00;74.20;;;34.25;56.10;101971.78;3182310;38;132892;-72
2021/08/13 08:48:07;;;;;;;4.43;1.00;;;29.90;74.20;;;33.56;57.81;101964.94;3186647;38;131584;-73
2021/08/13 08:51:13;;;;;;;2.20;1.13;;;29.80;74.20;;;34.48;55.04;101977.19;3184476;38;131042;-73
2021/08/13 08:54:26;;;;;;;1.55;1.20;;;29.60;74.70;;;37.26;48.68;101958.00;3186362;38;130787;-71
2021/08/13 08:57:35;;;;;;;0.65;0.60;;;29.80;74.90;;;37.74;48.33;101963.78;3185918;38;130661;-72
2021/08/13 09:00:41;;;;;;;0.98;0.68;;;30.40;74.70;;;39.66;44.67;101966.06;3188153;38;131568;-73
2021/08/13 09:03:49;;;;;;;0.68;0.55;;;31.00;74.40;;;40.96;43.56;101954.78;3187553;38;131322;-74
2021/08/13 09:06:54;;;;;;;3.53;0.82;;;31.70;74.00;;;41.30;44.03;101950.09;3190834;30;129614;-74
2021/08/13 09:10:03;;;;;;;0.43;0.43;;;32.50;73.90;;;40.04;47.04;101932.53;3188940;38;133019;-75
2021/08/13 09:13:11;;;;;;;1.13;0.63;;;32.90;73.60;;;38.09;52.03;101951.19;3188185;38;130658;-74
2021/08/13 09:16:19;;;;;;;0.15;0.15;;;32.80;73.70;;;40.17;47.06;101961.19;3188595;38;130217;-75
2021/08/13 09:19:42;;;;;;;0.05;0.05;;;32.70;73.80;;;41.89;44.09;101948.06;3187976;38;129807;-74
2021/08/13 09:22:48;;;;;;;0.30;0.30;;;33.10;74.20;;;42.69;43.50;101956.66;3188837;38;130715;-75
2021/08/13 09:26:08;;;;;;;1.30;0.43;;;33.60;74.20;;;42.82;43.47;101955.03;3188481;38;129800;-75
2021/08/13 09:29:33;;;;;;;0.45;0.45;;;34.10;73.30;;;41.06;47.63;101961.88;3187851;30;129964;-75
2021/08/13 09:32:59;;;;;;;0.10;0.05;;;34.20;73.40;;;41.30;47.61;101952.16;3185444;38;130750;-75
2021/08/13 09:36:10;;;;;;;1.13;0.75;;;34.10;73.20;;;42.34;45.36;101945.44;3184221;38;130838;-75
2021/08/13 09:39:15;;;;;;;7.28;0.47;;;34.20;74.10;;;42.21;46.46;101966.75;3187211;38;129494;-75
2021/08/13 09:42:23;;;;;;;0.10;0.10;;;34.30;74.20;;;41.83;47.46;101964.88;3185339;38;129949;-74
2021/08/13 09:45:29;;;;;;;0.60;0.40;;;34.40;74.20;;;41.79;47.83;101961.47;3186850;38;130967;-74
2021/08/13 09:48:44;;;;;;;0.00;0.00;;;34.50;74.30;;;41.77;48.34;101969.63;3184389;38;130524;-73
2021/08/13 09:51:49;;;;;;;1.38;0.90;;;34.70;74.40;;;41.46;49.22;101958.06;3186617;38;129623;-73
2021/08/13 09:55:13;;;;;;;1.65;0.15;;;35.00;74.10;;;41.58;50.05;101978.72;3192320;38;130435;-73
2021/08/13 09:58:29;;;;;;;0.85;0.52;;;35.30;73.90;;;41.04;51.64;101973.63;3183821;30;131235;-74
2021/08/13 10:01:42;;;;;;;0.20;0.20;;;35.50;73.60;;;40.48;53.35;101964.47;3184725;38;131332;-74
2021/08/13 10:04:48;;;;;;;0.70;0.55;;;35.60;73.70;;;39.81;54.46;101975.34;3185130;38;130338;-73
2021/08/13 10:07:57;;;;;;;5.38;0.50;;;35.50;73.40;;;38.59;56.66;101972.41;3186834;30;131255;-73
2021/08/13 10:11:14;;;;;;;0.28;0.28;;;35.00;73.40;;;38.01;57.85;101980.72;3185098;38;132575;-73
2021/08/13 10:14:34;;;;;;;0.55;0.43;;;34.50;73.60;;;37.71;57.79;101978.69;3186607;38;129790;-73
2021/08/13 10:17:42;;;;;;;1.33;0.15;;;34.10;74.20;;;37.09;58.61;101972.63;3181220;38;130956;-73
2021/08/13 10:20:53;;;;;;;1.75;0.75;;;33.70;74.50;;;36.49;59.70;101982.22;3185539;38;130318;-73
2021/08/13 10:24:02;;;;;;;1.58;0.95;;;33.20;74.70;;;36.12;60.28;101971.88;3183876;30;130733;-74
2021/08/13 10:27:11;;;;;;;0.13;0.13;;;32.90;75.10;;;36.06;59.38;101968.06;3184241;30;130882;-74
2021/08/13 10:30:22;;;;;;;1.00;0.38;;;32.60;75.10;;;36.13;58.99;101971.41;3183684;38;130779;-72
2021/08/13 10:33:28;;;;;;;0.57;0.57;;;32.50;75.30;;;35.88;59.21;101973.38;3184728;38;129845;-73
2021/08/13 10:36:34;;;;;;;6.50;1.73;;;32.40;75.20;;;36.10;58.87;101974.34;3183277;38;132016;-73
2021/08/13 10:39:45;;;;;;;3.30;0.70;;;32.30;75.20;;;36.19;58.11;101974.44;3184915;38;129754;-73
2021/08/13 10:42:54;;;;;;;3.40;0.40;;;32.30;74.80;;;36.00;58.11;101969.81;3186388;38;132024;-73
2021/08/13 10:46:10;;;;;;;0.80;0.65;;;32.20;74.70;;;35.84;57.85;101978.28;3185919;30;130345;-73
2021/08/13 10:49:22;;;;;;;0.93;0.43;;;32.10;74.30;;;35.46;59.08;101980.19;3183245;38;132912;-73
2021/08/13 10:52:40;;;;;;;0.75;0.50;;;32.00;74.30;;;35.38;58.29;101978.06;3184025;30;131407;-73
2021/08/13 10:55:53;;;;;;;0.20;0.20;;;31.80;74.20;;;35.01;58.94;101976.63;3185105;38;130318;-73
2021/08/13 10:59:01;;;;;;;2.72;0.82;;;31.70;74.20;;;34.89;58.74;101969.00;3185587;38;130769;-74
2021/08/13 11:02:24;;;;;;;1.15;0.68;;;31.50;74.50;;;34.54;59.63;101969.88;3185650;38;130667;-73
2021/08/13 11:05:54;;;;;;;0.20;0.10;;;31.20;74.60;;;34.68;59.11;101963.19;3186290;38;130714;-74
2021/08/13 11:09:02;;;;;;;0.60;0.52;;;31.10;74.60;;;35.83;56.00;101960.00;3186358;38;130739;-73
2021/08/13 11:12:27;;;;;;;0.30;0.30;;;31.30;74.70;;;36.07;56.02;101958.47;3186745;38;130139;-73
2021/08/13 11:15:37;;;;;;;0.65;0.65;;;31.80;74.20;;;35.86;56.79;101953.53;3185718;38;131144;-74
2021/08/13 11:18:58;;;;;;;0.80;0.50;;;31.80;73.70;;;35.68;56.87;101960.88;3186129;38;130880;-74
2021/08/13 11:22:35;;;;;;;1.38;0.52;;;31.90;73.40;;;35.13;57.71;101973.16;3187393;30;130942;-74
2021/08/13 11:25:49;;;;;;;0.28;0.28;;;31.70;73.10;;;34.76;58.88;101970.94;3187772;30;130727;-75
2021/08/13 11:29:39;;;;;;;0.88;0.88;;;31.50;73.30;;;34.36;59.34;101969.53;3187300;38;130322;-75
2021/08/13 11:33:41;;;;;;;0.07;0.07;;;31.20;73.20;;;34.26;58.71;101978.13;3185248;38;131896;-75
2021/08/13 11:36:55;;;;;;;0.17;0.10;;;31.00;73.60;;;34.57;57.66;101984.91;3187139;38;130707;-74
2021/08/13 11:40:30;;;;;;;12.75;0.90;;;31.00;73.70;;;34.12;58.58;101975.66;3186985;30;130619;-74
2021/08/13 11:43:45;;;;;;;0.35;0.35;;;30.90;73.30;;;34.02;58.63;101990.56;3185882;38;131035;-74
2021/08/13 11:46:55;;;;;;;0.57;0.57;;;30.70;73.60;;;34.14;58.24;101985.13;3187407;38;130200;-75
2021/08/13 11:50:08;;;;;;;0.10;0.10;;;30.60;73.40;;;35.00;56.09;101997.38;3186426;38;130658;-75
2021/08/13 11:53:14;;;;;;;0.63;0.63;;;30.80;73.30;;;35.16;56.11;101997.38;3185353;38;134791;-74
2021/08/13 11:56:28;;;;;;;0.57;0.52;;;31.10;73.20;;;35.37;55.44;102005.13;3187097;30;130693;-74
2021/08/13 11:59:37;;;;;;;0.40;0.30;;;31.30;72.70;;;35.02;56.56;102002.50;3185954;38;131363;-73
2021/08/13 12:02:43;;;;;;;1.98;1.20;;;31.30;72.50;;;34.72;56.78;102005.69;3187096;30;131381;-73
2021/08/13 12:05:50;;;;;;;0.40;0.40;;;31.20;72.30;;;34.70;57.35;102008.88;3186231;30;130416;-74
2021/08/13 12:08:55;;;;;;;1.75;0.63;;;31.20;72.30;;;34.80;56.82;102012.63;3186217;38;130189;-73
2021/08/13 12:12:05;;;;;;;1.45;0.80;;;31.10;72.30;;;34.72;56.42;102008.47;3187392;30;130243;-74
2021/08/13 12:15:17;;;;;;;6.45;1.05;;;31.10;72.40;;;34.73;56.50;102007.25;3185924;38;129984;-74
2021/08/13 12:18:35;;;;;;;4.78;1.75;;;31.10;72.30;;;34.65;56.79;102014.97;3186090;30;130763;-73
2021/08/13 12:21:56;;;;;;;3.05;1.65;;;31.00;72.10;;;34.62;56.44;102003.88;3188309;38;129705;-73
2021/08/13 12:25:06;;;;;;;2.13;1.13;;;30.90;71.90;;;34.43;56.53;102013.91;3187098;38;130365;-73
2021/08/13 12:28:17;;;;;;;0.95;0.55;;;30.80;72.00;;;33.86;58.16;102012.78;3185184;38;131026;-73
2021/08/13 12:31:24;;;;;;;0.55;0.55;;;30.60;72.30;;;33.33;58.37;102013.03;3187315;38;130778;-73
2021/08/13 12:34:35;;;;;;;0.60;0.60;;;30.20;72.70;;;33.13;58.84;102014.19;3186460;30;131267;-73
2021/08/13 12:37:44;;;;;;;0.77;0.68;;;30.00;73.10;;;32.97;59.39;102022.41;3186768;30;129873;-73
2021/08/13 12:40:55;;;;;;;0.30;0.30;;;29.80;73.20;;;32.73;59.38;102035.50;3185199;38;130821;-74
2021/08/13 12:44:04;;;;;;;2.17;0.82;;;29.70;73.30;;;32.29;60.04;102040.50;3184806;38;129923;-73
2021/08/13 12:47:13;;;;;;;4.22;0.90;;;29.40;73.90;;;32.25;60.26;102020.38;3186393;38;131737;-74
2021/08/13 12:50:24;;;;;;;1.75;1.00;;;29.30;73.60;;;32.48;59.11;102037.06;3185380;38;130249;-74
2021/08/13 12:53:38;;;;;;;2.97;1.42;;;29.20;73.70;;;32.80;58.70;102035.38;3186765;30;129500;-74
2021/08/13 12:56:59;;;;;;;0.13;0.13;;;29.30;73.30;;;33.00;58.06;102032.66;3186390;38;130930;-74
2021/08/13 13:00:12;;;;;;;1.20;1.10;;;29.40;73.10;;;32.99;57.83;102031.09;3187309;30;130435;-74
2021/08/13 13:03:22;;;;;;;1.45;0.65;;;29.50;72.90;;;32.87;57.62;102035.25;3185160;38;134615;-74